createdAt,value
2023-05-25T00:01:09.002Z,5.60
2023-05-25T00:03:36.499Z,5.13
2023-05-25T00:06:03.986Z,5.30
2023-05-25T00:08:31.212Z,5.70
2023-05-25T00:10:59.089Z,5.22
2023-05-25T00:13:26.179Z,5.40
2023-05-25T00:15:53.331Z,5.45
2023-05-25T00:18:20.423Z,5.10
2023-05-25T00:20:47.743Z,5.78
2023-05-25T00:23:15.162Z,5.25
2023-05-25T00:25:42.754Z,5.30
2023-05-25T00:28:11.779Z,5.35
2023-05-25T00:30:39.000Z,5.60
2023-05-25T00:33:06.873Z,5.93
2023-05-25T00:35:33.978Z,5.97
2023-05-25T00:38:01.107Z,6.03
2023-05-25T00:40:28.176Z,5.10
2023-05-25T00:42:57.774Z,5.80
2023-05-25T00:45:24.804Z,5.80
2023-05-25T00:47:53.236Z,6.05
2023-05-25T00:50:42.540Z,6.28
2023-05-25T00:53:13.206Z,6.15
2023-05-25T00:56:04.246Z,5.80
2023-05-25T00:58:34.864Z,5.60
2023-05-25T01:01:04.017Z,5.93
2023-05-25T01:03:37.825Z,5.80
2023-05-25T01:06:11.936Z,6.13
2023-05-25T01:08:42.943Z,5.68
2023-05-25T01:11:12.222Z,6.45
2023-05-25T01:13:41.850Z,6.20
2023-05-25T01:16:10.041Z,5.93
2023-05-25T01:18:37.702Z,5.65
2023-05-25T01:21:18.061Z,6.47
2023-05-25T01:24:17.742Z,6.00
2023-05-25T01:27:17.380Z,6.10
2023-05-25T01:29:46.760Z,6.20
2023-05-25T01:32:14.731Z,6.13
2023-05-25T01:34:43.973Z,6.20
2023-05-25T01:37:17.489Z,6.22
2023-05-25T01:39:44.654Z,6.18
2023-05-25T01:42:11.746Z,5.95
2023-05-25T01:44:39.835Z,5.97
2023-05-25T01:47:30.772Z,5.88
2023-05-25T01:50:08.217Z,5.72
2023-05-25T01:52:50.422Z,6.28
2023-05-25T01:55:21.561Z,6.70
2023-05-25T01:57:51.392Z,6.50
2023-05-25T02:00:21.330Z,6.45
2023-05-25T02:02:50.155Z,6.13
2023-05-25T02:05:22.339Z,6.80
2023-05-25T02:07:49.510Z,7.05
2023-05-25T02:10:16.684Z,6.82
2023-05-25T02:12:43.670Z,6.28
2023-05-25T02:15:12.204Z,7.05
2023-05-25T02:17:39.345Z,7.65
2023-05-25T02:20:08.260Z,6.68
2023-05-25T02:22:35.497Z,6.68
2023-05-25T02:25:02.637Z,7.05
2023-05-25T02:27:30.156Z,7.65
2023-05-25T02:29:57.253Z,6.70
2023-05-25T02:32:26.160Z,6.75
2023-05-25T02:34:53.329Z,6.72
2023-05-25T02:37:21.190Z,7.18
2023-05-25T02:39:48.277Z,7.00
2023-05-25T02:42:15.445Z,6.65
2023-05-25T02:44:48.275Z,7.20
2023-05-25T02:47:19.409Z,6.90
2023-05-25T02:49:46.568Z,7.43
2023-05-25T02:52:13.892Z,7.70
2023-05-25T02:54:41.739Z,7.75
2023-05-25T02:57:14.341Z,7.80
2023-05-25T02:59:43.066Z,7.45
2023-05-25T03:02:10.254Z,7.10
2023-05-25T03:04:39.495Z,7.30
2023-05-25T03:07:06.625Z,6.72
2023-05-25T03:09:33.657Z,7.80
2023-05-25T03:12:03.298Z,6.78
2023-05-25T03:14:30.434Z,6.70
2023-05-25T03:17:04.175Z,7.07
2023-05-25T03:19:32.356Z,7.13
2023-05-25T03:22:00.123Z,6.80
2023-05-25T03:24:28.816Z,6.55
2023-05-25T03:26:59.431Z,6.93
2023-05-25T03:29:27.042Z,7.00
2023-05-25T03:31:54.266Z,7.20
2023-05-25T03:34:26.183Z,6.75
2023-05-25T03:36:54.992Z,6.68
2023-05-25T03:39:22.326Z,8.27
2023-05-25T03:41:51.424Z,7.65
2023-05-25T03:44:19.107Z,7.80
2023-05-25T03:46:46.698Z,8.30
2023-05-25T03:49:14.160Z,7.70
2023-05-25T03:51:42.851Z,7.97
2023-05-25T03:54:10.171Z,7.80
2023-05-25T03:56:37.268Z,7.85
2023-05-25T03:59:06.185Z,8.07
2023-05-25T04:01:40.041Z,7.97
2023-05-25T04:04:07.180Z,7.30
2023-05-25T04:06:37.203Z,8.10
2023-05-25T04:09:05.026Z,7.35
2023-05-25T04:11:33.769Z,8.52
2023-05-25T04:14:00.909Z,8.30
2023-05-25T04:16:30.477Z,8.45
2023-05-25T04:18:58.954Z,8.13
2023-05-25T04:21:26.885Z,7.75
2023-05-25T04:23:54.035Z,8.45
2023-05-25T04:26:21.216Z,8.10
2023-05-25T04:28:51.952Z,7.85
2023-05-25T04:31:49.665Z,7.65
2023-05-25T04:34:33.852Z,8.38
2023-05-25T04:37:05.208Z,8.23
2023-05-25T04:39:32.952Z,8.63
2023-05-25T04:42:04.519Z,7.95
2023-05-25T04:44:33.226Z,8.63
2023-05-25T04:47:03.836Z,9.45
2023-05-25T04:49:34.720Z,9.32
2023-05-25T04:52:01.664Z,9.40
2023-05-25T04:54:30.628Z,9.85
2023-05-25T04:57:01.603Z,9.73
2023-05-25T04:59:28.628Z,10.75
2023-05-25T05:01:55.968Z,9.98
2023-05-25T05:04:23.151Z,9.48
2023-05-25T05:06:51.416Z,9.88
2023-05-25T05:09:21.035Z,9.77
2023-05-25T05:11:48.802Z,9.90
2023-05-25T05:14:16.992Z,10.43
2023-05-25T05:16:45.697Z,10.13
2023-05-25T05:19:12.780Z,10.13
2023-05-25T05:21:41.077Z,9.57
2023-05-25T05:24:08.773Z,9.65
2023-05-25T05:26:48.202Z,9.05
2023-05-25T05:29:26.811Z,9.80
2023-05-25T05:31:55.939Z,9.35
2023-05-25T05:34:23.162Z,9.82
2023-05-25T05:36:57.914Z,9.63
2023-05-25T05:39:27.901Z,9.53
2023-05-25T05:41:56.317Z,9.00
2023-05-25T05:44:27.915Z,9.18
2023-05-25T05:47:01.187Z,9.23
2023-05-25T05:49:30.760Z,8.90
2023-05-25T05:51:58.623Z,9.60
2023-05-25T05:54:27.833Z,9.07
2023-05-25T05:56:56.030Z,8.40
2023-05-25T05:59:23.316Z,8.98
2023-05-25T06:01:50.631Z,9.02
2023-05-25T06:04:19.269Z,8.30
2023-05-25T06:06:46.977Z,8.90
2023-05-25T06:09:14.434Z,8.77
2023-05-25T06:11:41.805Z,8.50
2023-05-25T06:14:11.294Z,7.75
2023-05-25T06:16:38.552Z,8.00
2023-05-25T06:19:05.834Z,7.82
2023-05-25T06:21:33.026Z,8.13
2023-05-25T06:24:00.070Z,7.65
2023-05-25T06:26:27.349Z,7.25
2023-05-25T06:28:55.167Z,7.25
2023-05-25T06:31:22.558Z,6.78
2023-05-25T06:33:49.744Z,6.55
2023-05-25T06:36:17.154Z,6.22
2023-05-25T06:38:47.156Z,6.28
2023-05-25T06:41:15.400Z,5.55
2023-05-25T06:43:43.616Z,5.40
2023-05-25T06:46:26.051Z,4.78
2023-05-25T06:48:53.259Z,5.00
2023-05-25T06:51:21.095Z,5.63
2023-05-25T06:53:48.130Z,4.82
2023-05-25T06:56:16.083Z,4.50
2023-05-25T06:58:43.373Z,4.60
2023-05-25T07:01:10.816Z,4.90
2023-05-25T07:03:38.685Z,5.45
2023-05-25T07:06:07.218Z,5.13
2023-05-25T07:08:34.350Z,4.80
2023-05-25T07:11:01.516Z,4.80
2023-05-25T07:13:28.757Z,4.40
2023-05-25T07:15:55.819Z,4.55
2023-05-25T07:18:22.955Z,4.78
2023-05-25T07:20:50.144Z,4.57
2023-05-25T07:23:17.378Z,4.82
2023-05-25T07:25:45.055Z,4.78
2023-05-25T07:28:12.544Z,4.28
2023-05-25T07:30:40.813Z,4.85
2023-05-25T07:33:07.939Z,3.97
2023-05-25T07:35:35.552Z,4.65
2023-05-25T07:38:06.929Z,4.85
2023-05-25T07:40:34.050Z,4.55
2023-05-25T07:43:01.421Z,4.40
2023-05-25T07:45:28.513Z,3.92
2023-05-25T07:47:55.791Z,4.50
2023-05-25T07:50:23.977Z,4.47
2023-05-25T07:52:51.155Z,4.75
2023-05-25T07:55:20.097Z,4.32
2023-05-25T07:57:47.348Z,4.70
2023-05-25T08:00:14.771Z,4.63
2023-05-25T08:02:42.177Z,4.60
2023-05-25T08:05:10.264Z,4.85
2023-05-25T08:07:38.593Z,4.43
2023-05-25T08:10:07.534Z,4.80
2023-05-25T08:12:48.004Z,4.65
2023-05-25T08:15:17.037Z,4.35
2023-05-25T08:17:44.633Z,4.43
2023-05-25T08:20:12.702Z,4.80
2023-05-25T08:22:39.878Z,4.63
2023-05-25T08:25:08.145Z,5.38
2023-05-25T08:27:36.582Z,4.85
2023-05-25T08:30:08.151Z,4.53
2023-05-25T08:32:35.398Z,4.55
2023-05-25T08:35:03.516Z,4.53
2023-05-25T08:37:32.273Z,5.32
2023-05-25T08:40:02.152Z,4.63
2023-05-25T08:42:29.530Z,4.88
2023-05-25T08:44:56.949Z,5.03
2023-05-25T08:47:24.885Z,4.25
2023-05-25T08:49:53.224Z,5.15
2023-05-25T08:52:26.822Z,4.47
2023-05-25T08:54:58.796Z,4.75
2023-05-25T08:57:41.295Z,4.88
2023-05-25T09:00:12.990Z,5.10
2023-05-25T09:02:51.782Z,5.20
2023-05-25T09:05:19.740Z,5.80
2023-05-25T09:07:47.609Z,5.65
2023-05-25T09:10:15.590Z,4.38
2023-05-25T09:12:43.847Z,5.43
2023-05-25T09:15:12.063Z,5.20
2023-05-25T09:17:41.292Z,5.55
2023-05-25T09:20:12.005Z,5.25
2023-05-25T09:22:41.021Z,5.20
2023-05-25T09:25:10.598Z,5.55
2023-05-25T09:27:38.387Z,5.22
2023-05-25T09:30:06.774Z,5.07
2023-05-25T09:32:34.063Z,5.10
2023-05-25T09:35:12.972Z,5.13
2023-05-25T09:37:42.449Z,4.93
2023-05-25T09:40:11.078Z,5.57
2023-05-25T09:42:38.999Z,5.50
2023-05-25T09:45:07.204Z,5.72
2023-05-25T09:47:37.187Z,6.07
2023-05-25T09:50:05.669Z,5.78
2023-05-25T09:52:33.304Z,5.22
2023-05-25T09:55:02.497Z,5.53
2023-05-25T09:57:29.610Z,5.78
2023-05-25T09:59:57.146Z,5.13
2023-05-25T10:02:24.285Z,5.13
2023-05-25T10:04:51.574Z,5.70
2023-05-25T10:07:19.836Z,5.57
2023-05-25T10:09:47.924Z,5.15
2023-05-25T10:12:20.269Z,5.07
2023-05-25T10:14:51.459Z,5.20
2023-05-25T10:17:23.756Z,5.57
2023-05-25T10:19:59.918Z,5.57
2023-05-25T10:22:36.799Z,5.35
2023-05-25T10:25:31.293Z,5.70
2023-05-25T10:28:07.614Z,5.80
2023-05-25T10:30:37.062Z,5.57
2023-05-25T10:33:05.571Z,5.45
2023-05-25T10:35:46.656Z,5.38
2023-05-25T10:38:22.648Z,6.07
2023-05-25T10:40:51.548Z,5.35
2023-05-25T10:43:20.128Z,4.95
2023-05-25T10:45:48.789Z,5.35
2023-05-25T10:48:19.030Z,5.20
2023-05-25T10:50:51.617Z,5.53
2023-05-25T10:53:21.643Z,5.25
2023-05-25T10:55:54.516Z,5.13
2023-05-25T10:58:23.352Z,5.18
2023-05-25T11:01:08.373Z,5.40
2023-05-25T11:03:44.850Z,5.35
2023-05-25T11:06:21.518Z,5.25
2023-05-25T11:08:59.703Z,5.05
2023-05-25T11:11:47.572Z,5.13
2023-05-25T11:14:42.443Z,4.82
2023-05-25T11:17:15.631Z,4.60
2023-05-25T11:19:54.195Z,5.15
2023-05-25T11:22:33.242Z,4.70
2023-05-25T11:25:03.285Z,5.15
2023-05-25T11:27:31.967Z,5.03
2023-05-25T11:30:00.550Z,5.30
2023-05-25T11:32:28.544Z,5.00
2023-05-25T11:34:58.156Z,5.47
2023-05-25T11:37:31.737Z,5.63
2023-05-25T11:39:59.007Z,4.85
2023-05-25T11:42:26.395Z,5.53
2023-05-25T11:44:53.676Z,6.40
2023-05-25T11:47:25.221Z,6.30
2023-05-25T11:49:55.681Z,6.10
2023-05-25T11:52:27.909Z,5.72
2023-05-25T11:54:55.032Z,5.90
2023-05-25T11:57:25.341Z,5.65
2023-05-25T11:59:55.560Z,5.72
2023-05-25T12:02:24.217Z,5.90
2023-05-25T12:05:00.141Z,5.65
2023-05-25T12:10:10.092Z,5.65
2023-05-25T12:12:51.461Z,6.00
2023-05-25T12:15:22.119Z,5.72
2023-05-25T12:17:50.831Z,6.05
2023-05-25T12:20:18.873Z,6.10
2023-05-25T12:22:47.346Z,6.10
2023-05-25T12:25:21.420Z,6.18
2023-05-25T12:27:48.707Z,6.10
2023-05-25T12:30:16.110Z,6.22
2023-05-25T12:33:03.847Z,6.22
2023-05-25T12:35:49.054Z,5.95
2023-05-25T12:38:18.931Z,5.93
2023-05-25T12:40:46.361Z,5.43
2023-05-25T12:43:15.291Z,5.97
2023-05-25T12:45:43.554Z,6.60
2023-05-25T12:48:10.938Z,6.65
2023-05-25T12:50:38.407Z,5.90
2023-05-25T12:53:05.986Z,6.63
2023-05-25T12:55:35.570Z,5.93
2023-05-25T12:58:05.721Z,5.78
2023-05-25T13:00:38.802Z,5.60
2023-05-25T13:03:09.657Z,6.60
2023-05-25T13:05:38.669Z,6.55
2023-05-25T13:08:06.995Z,5.80
2023-05-25T13:10:37.649Z,6.10
2023-05-25T13:13:04.874Z,5.50
2023-05-25T13:15:32.045Z,5.82
2023-05-25T13:17:59.288Z,5.70
2023-05-25T13:20:30.244Z,5.60
2023-05-25T13:22:58.494Z,5.57
2023-05-25T13:25:28.439Z,5.80
2023-05-25T13:27:58.146Z,5.60
2023-05-25T13:30:26.335Z,5.82
2023-05-25T13:32:53.563Z,5.63
2023-05-25T13:35:46.265Z,5.88
2023-05-25T13:38:15.847Z,6.13
2023-05-25T13:40:45.011Z,5.22
2023-05-25T13:43:12.148Z,5.55
2023-05-25T13:45:39.286Z,5.45
2023-05-25T13:48:06.551Z,5.88
2023-05-25T13:50:33.691Z,5.82
2023-05-25T13:53:00.715Z,5.85
2023-05-25T13:55:27.714Z,5.40
2023-05-25T13:57:54.768Z,5.60
2023-05-25T14:00:21.936Z,6.07
2023-05-25T14:02:49.116Z,5.97
2023-05-25T14:05:16.328Z,6.22
2023-05-25T14:07:44.473Z,5.97
2023-05-25T14:10:12.089Z,5.70
2023-05-25T14:12:39.545Z,5.25
2023-05-25T14:15:08.218Z,5.85
2023-05-25T14:17:35.241Z,5.95
2023-05-25T14:20:05.650Z,5.68
2023-05-25T14:22:33.008Z,6.40
2023-05-25T14:25:00.086Z,5.43
2023-05-25T14:27:27.142Z,5.80
2023-05-25T14:29:54.167Z,6.43
2023-05-25T14:32:21.369Z,6.05
2023-05-25T14:34:48.418Z,5.78
2023-05-25T14:37:15.522Z,6.30
2023-05-25T14:39:42.614Z,5.38
2023-05-25T14:42:09.729Z,5.28
2023-05-25T14:44:36.950Z,5.55
2023-05-25T14:47:04.493Z,5.47
2023-05-25T14:49:31.674Z,6.03
2023-05-25T14:51:58.811Z,6.03
2023-05-25T14:54:26.231Z,6.70
2023-05-25T14:56:53.270Z,6.25
2023-05-25T14:59:20.473Z,6.90
2023-05-25T15:01:47.694Z,6.53
2023-05-25T15:04:14.924Z,5.93
2023-05-25T15:06:42.204Z,6.50
2023-05-25T15:09:09.532Z,6.50
2023-05-25T15:11:36.833Z,6.00
2023-05-25T15:14:03.941Z,6.18
2023-05-25T15:16:31.214Z,6.10
2023-05-25T15:18:58.408Z,5.80
2023-05-25T15:21:26.545Z,6.40
2023-05-25T15:23:53.654Z,6.22
2023-05-25T15:26:21.465Z,6.30
2023-05-25T15:28:48.473Z,6.55
2023-05-25T15:31:16.490Z,6.30
2023-05-25T15:33:54.311Z,6.80
2023-05-25T15:36:25.577Z,6.43
2023-05-25T15:38:52.869Z,7.05
2023-05-25T15:41:20.033Z,6.05
2023-05-25T15:43:54.638Z,6.63
2023-05-25T15:46:21.971Z,6.15
2023-05-25T15:48:49.090Z,6.45
2023-05-25T15:51:16.310Z,6.63
2023-05-25T15:53:43.492Z,6.35
2023-05-25T15:56:11.006Z,6.03
2023-05-25T15:58:38.182Z,6.22
2023-05-25T16:01:06.053Z,5.90
2023-05-25T16:03:33.138Z,6.50
2023-05-25T16:06:00.198Z,6.45
2023-05-25T16:08:27.336Z,6.90
2023-05-25T16:10:54.635Z,6.43
2023-05-25T16:13:21.807Z,6.05
2023-05-25T16:15:49.134Z,5.93
2023-05-25T16:18:16.726Z,5.95
2023-05-25T16:20:44.225Z,6.45
2023-05-25T16:23:11.572Z,6.82
2023-05-25T16:25:38.718Z,5.85
2023-05-25T16:28:05.710Z,5.47
2023-05-25T16:30:32.857Z,5.60
2023-05-25T16:32:59.827Z,5.70
2023-05-25T16:35:26.925Z,5.75
2023-05-25T16:37:54.102Z,5.35
2023-05-25T16:40:21.242Z,6.05
2023-05-25T16:42:48.357Z,5.97
2023-05-25T16:45:15.468Z,5.78
2023-05-25T16:47:42.522Z,5.78
2023-05-25T16:50:09.988Z,5.75
2023-05-25T16:52:37.121Z,6.13
2023-05-25T16:55:04.978Z,5.88
2023-05-25T16:57:32.085Z,6.53
2023-05-25T16:59:59.121Z,6.45
2023-05-25T17:02:26.398Z,6.00
2023-05-25T17:04:53.664Z,6.05
2023-05-25T17:07:20.859Z,5.40
2023-05-25T17:09:48.044Z,5.95
2023-05-25T17:12:15.156Z,5.90
2023-05-25T17:14:42.212Z,6.22
2023-05-25T17:17:09.380Z,6.28
2023-05-25T17:19:36.587Z,6.57
2023-05-25T17:22:03.715Z,6.18
2023-05-25T17:24:30.823Z,6.55
2023-05-25T17:26:57.921Z,6.10
2023-05-25T17:29:24.935Z,5.88
2023-05-25T17:31:52.081Z,6.32
2023-05-25T17:34:19.316Z,6.15
2023-05-25T17:36:46.362Z,5.65
2023-05-25T17:39:13.457Z,6.07
2023-05-25T17:41:41.468Z,6.40
2023-05-25T17:44:08.523Z,5.80
2023-05-25T17:46:36.338Z,5.82
2023-05-25T17:49:04.462Z,6.13
2023-05-25T17:51:31.460Z,6.07
2023-05-25T17:53:58.463Z,6.10
2023-05-25T17:56:26.352Z,5.93
2023-05-25T17:58:53.592Z,5.75
2023-05-25T18:01:20.859Z,5.90
2023-05-25T18:03:50.679Z,5.75
2023-05-25T18:06:17.870Z,6.60
2023-05-25T18:08:44.895Z,5.82
2023-05-25T18:11:12.072Z,5.85
2023-05-25T18:13:39.325Z,6.55
2023-05-25T18:16:06.447Z,6.35
2023-05-25T18:18:33.403Z,5.82
2023-05-25T18:21:00.892Z,6.43
2023-05-25T18:23:28.054Z,6.32
2023-05-25T18:25:55.524Z,6.15
2023-05-25T18:28:23.547Z,5.88
2023-05-25T18:30:50.714Z,6.28
2023-05-25T18:33:17.792Z,5.82
2023-05-25T18:35:45.155Z,6.35
2023-05-25T18:38:12.314Z,6.95
2023-05-25T18:40:39.449Z,6.63
2023-05-25T18:43:07.789Z,6.75
2023-05-25T18:45:35.016Z,6.30
2023-05-25T18:48:07.466Z,6.82
2023-05-25T18:50:35.850Z,6.25
2023-05-25T18:53:04.289Z,6.72
2023-05-25T18:55:31.382Z,6.53
2023-05-25T18:57:58.649Z,6.43
2023-05-25T19:00:25.811Z,6.75
2023-05-25T19:02:52.977Z,6.65
2023-05-25T19:05:21.571Z,6.50
2023-05-25T19:07:58.425Z,6.85
2023-05-25T19:10:27.272Z,6.90
2023-05-25T19:12:54.471Z,6.68
2023-05-25T19:15:21.731Z,7.25
2023-05-25T19:17:48.935Z,7.85
2023-05-25T19:20:16.498Z,7.22
2023-05-25T19:22:43.886Z,6.90
2023-05-25T19:25:11.098Z,7.60
2023-05-25T19:27:38.339Z,7.38
2023-05-25T19:30:06.135Z,7.13
2023-05-25T19:32:33.377Z,6.90
2023-05-25T19:35:00.609Z,6.72
2023-05-25T19:37:27.820Z,7.57
2023-05-25T19:39:54.918Z,7.32
2023-05-25T19:42:22.004Z,7.03
2023-05-25T19:44:49.104Z,7.10
2023-05-25T19:47:16.191Z,7.22
2023-05-25T19:49:43.364Z,7.43
2023-05-25T19:52:10.503Z,7.38
2023-05-25T19:54:38.392Z,7.38
2023-05-25T19:57:06.655Z,7.78
2023-05-25T19:59:33.791Z,7.40
2023-05-25T20:02:01.064Z,8.02
2023-05-25T20:04:28.100Z,7.40
2023-05-25T20:06:55.168Z,7.80
2023-05-25T20:09:30.082Z,7.70
2023-05-25T20:11:58.725Z,7.47
2023-05-25T20:14:26.648Z,6.93
2023-05-25T20:16:55.879Z,7.00
2023-05-25T20:19:23.278Z,8.07
2023-05-25T20:21:51.390Z,8.32
2023-05-25T20:24:18.695Z,7.80
2023-05-25T20:26:45.992Z,6.97
2023-05-25T20:29:13.047Z,7.53
2023-05-25T20:31:40.553Z,7.50
2023-05-25T20:34:07.799Z,7.68
2023-05-25T20:36:34.868Z,6.90
2023-05-25T20:39:03.113Z,7.97
2023-05-25T20:41:30.302Z,7.32
2023-05-25T20:43:57.831Z,7.32
2023-05-25T20:46:25.049Z,7.13
2023-05-25T20:48:53.388Z,7.03
2023-05-25T20:51:21.749Z,7.38
2023-05-25T20:53:48.988Z,7.15
2023-05-25T20:56:16.270Z,6.65
2023-05-25T20:58:43.628Z,6.90
2023-05-25T21:01:11.083Z,6.93
2023-05-25T21:03:39.389Z,7.18
2023-05-25T21:06:06.911Z,6.93
2023-05-25T21:08:34.314Z,7.40
2023-05-25T21:11:01.622Z,7.50
2023-05-25T21:13:28.781Z,7.05
2023-05-25T21:15:56.438Z,6.90
2023-05-25T21:18:23.509Z,7.40
2023-05-25T21:20:50.679Z,7.07
2023-05-25T21:23:17.833Z,6.65
2023-05-25T21:25:45.100Z,7.28
2023-05-25T21:28:12.469Z,6.80
2023-05-25T21:30:39.669Z,6.95
2023-05-25T21:33:06.678Z,6.65
2023-05-25T21:35:33.757Z,7.60
2023-05-25T21:38:01.106Z,6.93
2023-05-25T21:40:28.599Z,6.90
2023-05-25T21:42:56.076Z,7.00
2023-05-25T21:45:23.170Z,7.15
2023-05-25T21:47:50.480Z,7.13
2023-05-25T21:50:17.563Z,6.70
2023-05-25T21:52:44.866Z,6.93
2023-05-25T21:55:12.192Z,7.18
2023-05-25T21:57:39.221Z,7.15
2023-05-25T22:00:07.098Z,6.90
2023-05-25T22:02:40.971Z,6.40
2023-05-25T22:05:08.183Z,7.35
2023-05-25T22:07:35.289Z,7.50
2023-05-25T22:10:02.544Z,7.47
2023-05-25T22:12:29.557Z,6.53
2023-05-25T22:14:56.589Z,6.63
2023-05-25T22:17:23.611Z,7.00
2023-05-25T22:20:03.246Z,7.03
2023-05-25T22:22:34.940Z,7.18
2023-05-25T22:25:02.042Z,6.85
2023-05-25T22:27:29.162Z,7.00
2023-05-25T22:29:56.433Z,7.82
2023-05-25T22:32:23.626Z,6.45
2023-05-25T22:34:50.880Z,6.90
2023-05-25T22:37:18.011Z,6.57
2023-05-25T22:39:45.287Z,7.45
2023-05-25T22:42:12.521Z,6.57
2023-05-25T22:44:39.646Z,7.40
2023-05-25T22:47:07.160Z,6.85
2023-05-25T22:49:41.221Z,6.78
2023-05-25T22:52:12.264Z,6.60
2023-05-25T22:54:39.768Z,6.65
2023-05-25T22:57:09.118Z,6.90
2023-05-25T22:59:36.450Z,6.10
2023-05-25T23:02:04.040Z,7.30
2023-05-25T23:04:31.445Z,7.47
2023-05-25T23:06:58.506Z,7.10
2023-05-25T23:09:25.555Z,7.43
2023-05-25T23:11:52.603Z,7.45
2023-05-25T23:14:20.798Z,7.10
2023-05-25T23:16:50.553Z,7.13
2023-05-25T23:19:17.887Z,7.10
2023-05-25T23:21:45.005Z,6.95
2023-05-25T23:24:12.281Z,7.03
2023-05-25T23:26:39.391Z,6.85
2023-05-25T23:29:06.551Z,6.72
2023-05-25T23:31:33.668Z,6.65
2023-05-25T23:34:01.243Z,7.70
2023-05-25T23:36:28.480Z,7.10
2023-05-25T23:38:55.997Z,6.63
2023-05-25T23:41:23.378Z,7.70
2023-05-25T23:43:50.676Z,7.45
2023-05-25T23:46:18.093Z,6.75
2023-05-25T23:48:46.067Z,7.18
2023-05-25T23:51:13.261Z,7.15
2023-05-25T23:53:40.286Z,6.60
2023-05-25T23:56:07.458Z,7.00
2023-05-25T23:58:34.624Z,6.93
